Time;durP1;ratioP1;P1;durP2;ratioP2;P2;SDS_P1;SDS_P2;PMS_P1;PMS_P2;Temp;Humidity;BMP_temperature;BMP_pressure;BME280_temperature;BME280_humidity;BME280_pressure;Samples;Min_cycle;Max_cycle;Signal;HPM_P1;HPM_P2
2023/08/21 00:00:07;;;;;;;3.40;0.25;;;17.30;99.90;;;;;;5033636;28;20060;-75
2023/08/21 00:02:33;;;;;;;2.92;0.10;;;17.30;99.90;;;;;;5034798;28;20021;-75
2023/08/21 00:04:58;;;;;;;2.45;0.22;;;17.30;99.90;;;;;;5033373;28;20025;-74
2023/08/21 00:07:24;;;;;;;1.55;0.10;;;17.30;99.90;;;;;;5034581;28;20021;-75
2023/08/21 00:09:50;;;;;;;2.00;0.20;;;17.30;99.90;;;;;;5034583;28;20022;-75
2023/08/21 00:12:16;;;;;;;4.57;0.00;;;17.30;99.90;;;;;;5034611;28;20014;-75
2023/08/21 00:14:41;;;;;;;2.55;0.10;;;17.40;99.90;;;;;;5034664;28;20072;-75
2023/08/21 00:17:07;;;;;;;0.75;0.10;;;17.40;99.90;;;;;;5034514;28;20034;-75
2023/08/21 00:19:34;;;;;;;1.25;0.17;;;17.40;99.90;;;;;;5034157;28;20025;-75
2023/08/21 00:22:03;;;;;;;3.78;0.00;;;17.40;99.90;;;;;;5034514;28;20536;-75
2023/08/21 00:24:29;;;;;;;3.10;0.15;;;17.40;99.90;;;;;;5034269;28;20029;-75
2023/08/21 00:26:54;;;;;;;1.63;0.00;;;17.30;99.90;;;;;;5033520;28;20477;-74
2023/08/21 00:29:20;;;;;;;3.17;0.47;;;17.30;99.90;;;;;;5033062;28;20113;-74
2023/08/21 00:31:45;;;;;;;1.33;0.00;;;17.30;99.90;;;;;;5033254;28;20025;-74
2023/08/21 00:34:11;;;;;;;2.28;0.00;;;17.30;99.90;;;;;;5034123;28;20025;-74
2023/08/21 00:36:36;;;;;;;2.42;0.43;;;17.30;99.90;;;;;;5034260;28;20029;-74
2023/08/21 00:39:02;;;;;;;3.83;0.00;;;17.20;99.90;;;;;;5034639;28;20029;-74
2023/08/21 00:41:27;;;;;;;1.10;0.00;;;17.20;99.90;;;;;;5034201;28;20108;-74
2023/08/21 00:43:53;;;;;;;2.67;0.10;;;17.20;99.90;;;;;;5034224;28;20025;-74
2023/08/21 00:46:19;;;;;;;5.60;0.47;;;17.30;99.90;;;;;;5034475;28;20104;-74
2023/08/21 00:48:44;;;;;;;0.75;0.10;;;17.20;99.90;;;;;;5034009;28;20018;-74
2023/08/21 00:51:11;;;;;;;2.60;0.52;;;17.20;99.90;;;;;;5033983;28;20028;-74
2023/08/21 00:53:37;;;;;;;1.25;0.10;;;17.20;99.90;;;;;;5033919;28;20033;-74
2023/08/21 00:56:03;;;;;;;1.00;0.00;;;17.20;99.90;;;;;;5034002;28;20025;-74
2023/08/21 00:58:29;;;;;;;2.65;0.25;;;17.20;99.90;;;;;;5033989;28;20380;-74
2023/08/21 01:00:55;;;;;;;2.25;0.25;;;17.10;99.90;;;;;;5033782;28;20041;-74
2023/08/21 01:03:20;;;;;;;1.63;0.20;;;17.10;99.90;;;;;;5033748;28;20053;-74
2023/08/21 01:05:47;;;;;;;2.60;0.30;;;17.10;99.90;;;;;;5033582;28;20237;-74
2023/08/21 01:08:29;;;;;;;3.40;0.28;;;17.10;99.90;;;;;;5032461;28;20022;-74
2023/08/21 01:11:12;;;;;;;3.08;0.30;;;17.10;99.90;;;;;;5034403;28;20021;-74
2023/08/21 01:13:59;;;;;;;1.85;0.10;;;17.00;99.90;;;;;;5032452;28;20502;-74
2023/08/21 01:16:25;;;;;;;2.42;0.05;;;17.00;99.90;;;;;;5034181;28;20056;-74
2023/08/21 01:18:54;;;;;;;2.13;0.10;;;17.00;99.90;;;;;;5033537;28;20100;-74
2023/08/21 01:21:20;;;;;;;0.85;0.00;;;17.00;99.90;;;;;;5032179;28;20013;-74
2023/08/21 01:23:45;;;;;;;4.13;0.20;;;17.00;99.90;;;;;;5033524;28;20473;-74
2023/08/21 01:26:11;;;;;;;2.00;0.10;;;17.00;99.90;;;;;;5033442;28;20030;-74
2023/08/21 01:28:37;;;;;;;3.13;0.95;;;16.90;99.90;;;;;;5033496;28;20029;-74
2023/08/21 01:31:14;;;;;;;2.47;0.30;;;16.90;99.90;;;;;;5032682;28;20053;-74
2023/08/21 01:33:50;;;;;;;0.82;0.00;;;16.90;99.90;;;;;;5032117;28;20026;-74
2023/08/21 01:36:17;;;;;;;2.88;0.00;;;16.90;99.90;;;;;;5033618;28;20080;-74
2023/08/21 01:38:43;;;;;;;2.03;0.55;;;16.90;99.90;;;;;;5033445;28;20092;-74
2023/08/21 01:41:09;;;;;;;4.63;0.13;;;16.90;99.90;;;;;;5033508;28;20022;-74
2023/08/21 01:43:34;;;;;;;2.75;0.17;;;16.90;99.90;;;;;;5033961;28;20025;-74
2023/08/21 01:46:04;;;;;;;1.65;0.10;;;16.90;99.90;;;;;;5031889;28;20033;-74
2023/08/21 01:48:29;;;;;;;2.63;0.45;;;16.80;99.90;;;;;;5033399;28;20057;-74
2023/08/21 01:50:55;;;;;;;3.72;0.15;;;16.90;99.90;;;;;;5031920;28;20103;-74
2023/08/21 01:53:21;;;;;;;1.38;0.08;;;16.90;99.90;;;;;;5033320;28;20560;-74
2023/08/21 01:55:46;;;;;;;2.38;0.20;;;16.90;99.90;;;;;;5033237;28;20022;-73
2023/08/21 01:58:12;;;;;;;0.52;0.00;;;16.80;99.90;;;;;;5033435;28;20076;-75
2023/08/21 02:00:37;;;;;;;1.00;0.10;;;16.80;99.90;;;;;;5033439;28;20040;-74
2023/08/21 02:03:03;;;;;;;1.35;0.28;;;16.80;99.90;;;;;;5033231;28;20050;-74
2023/08/21 02:05:29;;;;;;;1.55;0.20;;;16.80;99.90;;;;;;5033067;28;20037;-74
2023/08/21 02:07:54;;;;;;;4.88;0.30;;;16.80;99.90;;;;;;5033285;28;20028;-74
2023/08/21 02:10:20;;;;;;;2.63;0.25;;;16.70;99.90;;;;;;5033185;28;20024;-74
2023/08/21 02:12:45;;;;;;;1.52;0.22;;;16.70;99.90;;;;;;5033719;28;20110;-73
2023/08/21 02:15:11;;;;;;;2.08;0.00;;;16.70;99.90;;;;;;5031732;28;20531;-74
2023/08/21 02:17:36;;;;;;;1.55;0.00;;;16.60;99.90;;;;;;5033065;28;20041;-73
2023/08/21 02:20:02;;;;;;;0.30;0.10;;;16.70;99.90;;;;;;5033055;28;20040;-74
2023/08/21 02:22:27;;;;;;;2.17;0.10;;;16.70;99.90;;;;;;5033506;28;20026;-73
2023/08/21 02:24:53;;;;;;;1.23;0.00;;;16.70;99.90;;;;;;5032781;28;20022;-75
2023/08/21 02:27:19;;;;;;;2.22;0.20;;;16.60;99.90;;;;;;5032891;28;20456;-74
2023/08/21 02:29:44;;;;;;;1.70;0.20;;;16.60;99.90;;;;;;5032883;28;20025;-74
2023/08/21 02:32:10;;;;;;;3.03;0.52;;;16.60;99.90;;;;;;5031604;28;20369;-73
2023/08/21 02:34:36;;;;;;;0.90;0.13;;;16.60;99.90;;;;;;5032757;28;20481;-74
2023/08/21 02:37:02;;;;;;;2.45;0.10;;;16.50;99.90;;;;;;5031573;28;20038;-74
2023/08/21 02:39:28;;;;;;;0.90;0.00;;;16.50;99.90;;;;;;5032856;28;20459;-74
2023/08/21 02:41:54;;;;;;;1.15;0.00;;;16.40;99.90;;;;;;5034572;28;20025;-74
2023/08/21 02:44:19;;;;;;;2.33;0.10;;;16.30;99.90;;;;;;5036455;28;20080;-74
2023/08/21 02:46:45;;;;;;;3.08;0.35;;;16.30;99.90;;;;;;5034988;28;20030;-74
2023/08/21 02:49:10;;;;;;;0.85;0.00;;;16.30;99.90;;;;;;5036312;28;20025;-74
2023/08/21 02:51:36;;;;;;;2.67;0.10;;;16.20;99.90;;;;;;5036366;28;20018;-74
2023/08/21 02:54:01;;;;;;;2.47;0.00;;;16.30;99.90;;;;;;5036218;28;20022;-74
2023/08/21 02:56:27;;;;;;;3.53;0.20;;;16.20;99.90;;;;;;5036270;28;20033;-74
2023/08/21 02:58:53;;;;;;;1.20;0.13;;;16.20;99.90;;;;;;5036038;28;20504;-74
2023/08/21 03:01:18;;;;;;;1.92;0.00;;;16.20;99.90;;;;;;5035906;28;20036;-74
2023/08/21 03:03:44;;;;;;;2.58;0.17;;;16.10;99.90;;;;;;5035911;28;20061;-75
2023/08/21 03:06:09;;;;;;;3.22;0.13;;;16.10;99.90;;;;;;5035821;28;20040;-74
2023/08/21 03:08:35;;;;;;;0.00;0.00;;;16.10;99.90;;;;;;5035914;28;20031;-73
2023/08/21 03:11:00;;;;;;;3.35;0.40;;;16.10;99.90;;;;;;5036307;28;20440;-74
2023/08/21 03:13:26;;;;;;;4.43;0.30;;;16.10;99.90;;;;;;5036448;28;20500;-74
2023/08/21 03:15:52;;;;;;;1.17;0.00;;;16.20;99.90;;;;;;5034463;28;20072;-75
2023/08/21 03:18:18;;;;;;;2.65;0.00;;;16.20;99.90;;;;;;5036304;28;20033;-74
2023/08/21 03:20:46;;;;;;;0.85;0.00;;;16.20;99.90;;;;;;5035847;28;20121;-74
2023/08/21 03:23:12;;;;;;;;;;;16.10;99.90;;;;;;5036220;28;20140;-74
2023/08/21 03:25:38;;;;;;;0.40;0.10;;;16.10;99.90;;;;;;5035607;28;19924;-74
2023/08/21 03:28:03;;;;;;;2.17;0.05;;;16.10;99.90;;;;;;5035562;28;20018;-74
2023/08/21 03:30:29;;;;;;;2.60;0.38;;;16.10;99.90;;;;;;5035619;28;20481;-73
2023/08/21 03:32:54;;;;;;;1.33;0.00;;;16.10;99.90;;;;;;5035516;28;20071;-74
2023/08/21 03:35:20;;;;;;;2.00;0.30;;;16.10;99.90;;;;;;5035428;28;20093;-74
2023/08/21 03:37:46;;;;;;;0.77;0.00;;;16.10;99.90;;;;;;5035299;28;20093;-74
2023/08/21 03:40:11;;;;;;;1.48;0.10;;;16.00;99.90;;;;;;5035379;28;20147;-74
2023/08/21 03:42:37;;;;;;;2.08;0.00;;;16.00;99.90;;;;;;5035397;28;20102;-74
2023/08/21 03:45:04;;;;;;;3.72;0.10;;;16.00;99.90;;;;;;5034042;28;20025;-74
2023/08/21 03:47:30;;;;;;;2.25;0.08;;;16.00;99.90;;;;;;5035225;28;20021;-74
2023/08/21 03:49:55;;;;;;;0.85;0.08;;;16.00;99.90;;;;;;5033816;28;20025;-74
2023/08/21 03:52:21;;;;;;;0.75;0.20;;;16.10;99.90;;;;;;5034987;28;20026;-74
2023/08/21 03:54:47;;;;;;;1.17;0.20;;;16.00;99.90;;;;;;5034548;28;20026;-74
2023/08/21 03:57:12;;;;;;;1.15;0.00;;;16.00;99.90;;;;;;5035225;28;20029;-74
2023/08/21 03:59:38;;;;;;;1.48;0.22;;;16.00;99.90;;;;;;5035358;28;20088;-74
2023/08/21 04:02:03;;;;;;;0.20;0.00;;;16.00;99.90;;;;;;5034935;28;20571;-74
2023/08/21 04:04:29;;;;;;;1.10;0.22;;;15.90;99.90;;;;;;5035328;28;20034;-74
2023/08/21 04:06:54;;;;;;;2.83;0.17;;;15.90;99.90;;;;;;5034866;28;20087;-74
2023/08/21 04:09:20;;;;;;;0.32;0.10;;;15.90;99.90;;;;;;5034839;28;20021;-74
2023/08/21 04:11:46;;;;;;;1.55;0.00;;;15.80;99.90;;;;;;5035237;28;20105;-74
2023/08/21 04:14:11;;;;;;;2.05;0.22;;;15.90;99.90;;;;;;5035170;28;20021;-74
2023/08/21 04:16:37;;;;;;;4.07;0.32;;;15.90;99.90;;;;;;5033415;28;20422;-74
2023/08/21 04:19:02;;;;;;;0.80;0.00;;;15.90;99.90;;;;;;5034794;28;20389;-75
2023/08/21 04:21:28;;;;;;;1.10;0.10;;;15.80;99.90;;;;;;5034597;28;20062;-74
2023/08/21 04:23:53;;;;;;;2.72;0.20;;;15.80;99.90;;;;;;5033272;28;20017;-74
2023/08/21 04:26:19;;;;;;;1.60;0.00;;;15.90;99.90;;;;;;5034362;28;20029;-74
2023/08/21 04:28:46;;;;;;;3.22;0.00;;;15.90;99.90;;;;;;5034383;28;20045;-74
2023/08/21 04:31:11;;;;;;;4.20;0.15;;;15.90;99.90;;;;;;5034305;28;20028;-74
2023/08/21 04:33:37;;;;;;;1.92;0.25;;;15.90;99.90;;;;;;5034262;28;20021;-74
2023/08/21 04:36:02;;;;;;;1.33;0.22;;;15.90;99.90;;;;;;5034306;28;20417;-74
2023/08/21 04:38:28;;;;;;;0.85;0.10;;;16.00;99.90;;;;;;5034476;28;20104;-74
2023/08/21 04:40:54;;;;;;;2.38;0.35;;;16.00;99.90;;;;;;5034305;28;20481;-74
2023/08/21 04:43:19;;;;;;;3.15;0.20;;;16.10;99.90;;;;;;5034608;28;20025;-74
2023/08/21 04:45:50;;;;;;;2.90;0.30;;;16.00;99.90;;;;;;5034198;28;20057;-74
2023/08/21 04:48:15;;;;;;;2.50;0.15;;;16.00;99.90;;;;;;5032814;28;20393;-74
2023/08/21 04:50:41;;;;;;;1.23;0.10;;;16.00;99.90;;;;;;5034002;28;20018;-74
2023/08/21 04:53:06;;;;;;;2.03;0.17;;;16.00;99.90;;;;;;5034576;28;20049;-73
2023/08/21 04:55:32;;;;;;;0.68;0.10;;;16.00;99.90;;;;;;5034255;28;20112;-73
2023/08/21 04:57:57;;;;;;;5.00;0.32;;;16.00;99.90;;;;;;5034014;28;20045;-73
2023/08/21 05:00:23;;;;;;;2.22;0.10;;;16.00;99.90;;;;;;5032784;28;20040;-74
2023/08/21 05:02:48;;;;;;;1.17;0.00;;;16.00;99.90;;;;;;5034488;28;20026;-74
2023/08/21 05:05:14;;;;;;;3.50;0.45;;;16.00;99.90;;;;;;5033992;28;20025;-74
2023/08/21 05:07:39;;;;;;;2.63;0.20;;;16.00;99.90;;;;;;5034212;28;20030;-73
2023/08/21 05:10:08;;;;;;;5.78;0.30;;;15.90;99.90;;;;;;5033619;28;20541;-74
2023/08/21 05:12:33;;;;;;;3.83;0.30;;;16.00;99.90;;;;;;5032407;28;20021;-74
2023/08/21 05:14:59;;;;;;;4.63;0.30;;;15.90;99.90;;;;;;5033658;28;20048;-74
2023/08/21 05:17:28;;;;;;;1.88;0.00;;;16.00;99.90;;;;;;5034247;28;20100;-73
2023/08/21 05:19:54;;;;;;;2.30;0.38;;;16.00;99.90;;;;;;5033645;28;20040;-73
2023/08/21 05:22:19;;;;;;;2.33;0.15;;;16.10;99.90;;;;;;5034288;28;20104;-73
2023/08/21 05:24:45;;;;;;;1.15;0.00;;;16.20;99.90;;;;;;5033458;28;20105;-74
2023/08/21 05:27:10;;;;;;;1.33;0.25;;;16.20;99.90;;;;;;5033544;28;20511;-74
2023/08/21 05:29:36;;;;;;;2.53;0.10;;;16.20;99.90;;;;;;5033461;28;20092;-73
2023/08/21 05:32:01;;;;;;;1.33;0.20;;;16.30;99.90;;;;;;5032241;28;20049;-73
2023/08/21 05:34:28;;;;;;;5.25;0.10;;;16.30;99.90;;;;;;5033924;28;20018;-73
2023/08/21 05:36:56;;;;;;;0.85;0.17;;;16.40;99.90;;;;;;5033416;28;20022;-73
2023/08/21 05:39:22;;;;;;;3.53;0.40;;;16.40;99.90;;;;;;5032280;28;20021;-73
2023/08/21 05:41:47;;;;;;;1.08;0.10;;;16.40;99.90;;;;;;5032134;28;20052;-73
2023/08/21 05:44:13;;;;;;;3.03;0.20;;;16.50;99.90;;;;;;5033511;28;20037;-73
2023/08/21 05:46:38;;;;;;;1.35;0.00;;;16.60;99.90;;;;;;5033347;28;20086;-73
2023/08/21 05:49:04;;;;;;;1.17;0.10;;;16.70;99.90;;;;;;5033112;28;20523;-73
2023/08/21 05:51:30;;;;;;;6.20;0.40;;;16.80;99.90;;;;;;5033070;28;20029;-74
2023/08/21 05:53:56;;;;;;;3.33;0.20;;;16.90;99.90;;;;;;5033258;28;20017;-73
2023/08/21 05:56:22;;;;;;;0.95;0.43;;;17.00;99.90;;;;;;5033071;28;20479;-73
2023/08/21 05:58:48;;;;;;;3.95;0.10;;;17.20;99.90;;;;;;5031869;28;20504;-74
2023/08/21 06:01:13;;;;;;;1.02;0.17;;;17.30;99.90;;;;;;5033097;28;20068;-73
2023/08/21 06:03:39;;;;;;;1.48;0.15;;;17.40;99.90;;;;;;5033393;28;20029;-73
2023/08/21 06:06:05;;;;;;;5.60;0.25;;;17.50;99.90;;;;;;5033206;28;20025;-74
2023/08/21 06:08:30;;;;;;;4.85;0.60;;;17.60;99.90;;;;;;5033193;28;20026;-75
2023/08/21 06:10:56;;;;;;;5.38;1.05;;;17.70;99.90;;;;;;5033636;28;20105;-74
2023/08/21 06:13:21;;;;;;;3.13;0.20;;;17.80;99.90;;;;;;5031877;28;20053;-74
2023/08/21 06:15:47;;;;;;;1.23;0.10;;;17.90;99.90;;;;;;5031663;28;20521;-74
2023/08/21 06:18:14;;;;;;;1.30;0.32;;;17.90;99.90;;;;;;5037041;28;20080;-74
2023/08/21 06:20:43;;;;;;;1.52;0.43;;;17.90;99.90;;;;;;5037370;28;20045;-74
2023/08/21 06:23:08;;;;;;;0.75;0.20;;;17.90;99.90;;;;;;5035668;28;20443;-72
2023/08/21 06:25:34;;;;;;;6.60;0.63;;;17.90;99.90;;;;;;5037060;28;20021;-74
2023/08/21 06:27:59;;;;;;;1.98;0.17;;;17.90;99.90;;;;;;5035449;28;20029;-74
2023/08/21 06:30:26;;;;;;;5.03;0.35;;;17.90;99.90;;;;;;5036912;28;20097;-73
2023/08/21 06:32:52;;;;;;;4.20;0.20;;;17.90;99.90;;;;;;5036748;28;20026;-74
2023/08/21 06:35:17;;;;;;;6.00;0.32;;;18.00;99.90;;;;;;5036431;28;20032;-74
2023/08/21 06:37:43;;;;;;;5.53;0.35;;;18.10;99.90;;;;;;5037316;28;20053;-78
2023/08/21 06:40:09;;;;;;;3.30;0.20;;;18.20;99.90;;;;;;5037017;28;20064;-78
2023/08/21 06:42:35;;;;;;;3.60;0.22;;;18.40;99.90;;;;;;5035972;28;20022;-78
2023/08/21 06:45:01;;;;;;;6.15;0.52;;;18.60;99.90;;;;;;5037498;28;20030;-78
2023/08/21 06:47:26;;;;;;;4.07;0.30;;;19.00;99.90;;;;;;5037696;28;20025;-78
2023/08/21 06:49:52;;;;;;;3.92;0.10;;;19.30;99.90;;;;;;5037883;28;20385;-79
2023/08/21 06:52:17;;;;;;;6.93;0.55;;;19.60;99.90;;;;;;5037647;28;20021;-78
2023/08/21 06:54:43;;;;;;;4.47;0.45;;;20.30;99.90;;;;;;5036580;28;20029;-77
2023/08/21 06:57:08;;;;;;;5.28;0.55;;;20.10;99.90;;;;;;5037479;28;20542;-78
2023/08/21 06:59:35;;;;;;;4.80;0.28;;;20.30;99.90;;;;;;5037014;28;20061;-77
2023/08/21 07:02:02;;;;;;;2.45;0.40;;;20.30;99.90;;;;;;5035846;28;20049;-79
2023/08/21 07:04:28;;;;;;;3.60;0.17;;;20.40;99.90;;;;;;5036703;28;20055;-78
2023/08/21 07:06:53;;;;;;;2.60;0.00;;;20.50;99.90;;;;;;5037709;28;20499;-79
2023/08/21 07:09:19;;;;;;;1.65;0.00;;;20.60;99.90;;;;;;5038498;28;20021;-78
2023/08/21 07:11:45;;;;;;;1.92;0.10;;;20.80;99.90;;;;;;5037841;28;20014;-78
2023/08/21 07:14:13;;;;;;;1.70;0.00;;;21.00;99.90;;;;;;5036626;28;20017;-78
2023/08/21 07:16:39;;;;;;;1.42;0.13;;;21.10;99.90;;;;;;5035877;28;20401;-77
2023/08/21 07:19:04;;;;;;;1.45;0.00;;;21.30;99.90;;;;;;5037356;28;20021;-78
2023/08/21 07:21:30;;;;;;;6.07;0.10;;;21.30;99.90;;;;;;5036928;28;20033;-78
2023/08/21 07:23:55;;;;;;;1.98;0.30;;;21.50;99.90;;;;;;5035367;28;20070;-77
2023/08/21 07:26:21;;;;;;;2.25;0.00;;;21.70;99.90;;;;;;5037914;28;20029;-79
2023/08/21 07:28:47;;;;;;;2.25;0.00;;;22.00;99.90;;;;;;5034585;28;20029;-78
2023/08/21 07:31:12;;;;;;;8.18;0.10;;;22.00;99.90;;;;;;5036660;28;20026;-78
2023/08/21 07:33:38;;;;;;;4.78;0.35;;;22.00;99.90;;;;;;5036317;28;20465;-78
2023/08/21 07:36:05;;;;;;;4.05;0.43;;;22.10;99.90;;;;;;5036392;28;20034;-78
2023/08/21 07:38:31;;;;;;;4.03;0.73;;;22.10;99.90;;;;;;5036323;28;20022;-78
2023/08/21 07:41:09;;;;;;;4.13;0.20;;;22.20;99.90;;;;;;5034889;28;20021;-78
2023/08/21 07:43:35;;;;;;;3.38;0.30;;;22.30;99.90;;;;;;5035826;28;20026;-77
2023/08/21 07:46:05;;;;;;;1.30;0.10;;;22.30;99.90;;;;;;5036437;28;20030;-79
2023/08/21 07:48:31;;;;;;;3.65;0.10;;;22.30;99.90;;;;;;5036219;28;20104;-78
2023/08/21 07:50:57;;;;;;;5.20;0.55;;;22.30;99.90;;;;;;5036484;28;20049;-78
2023/08/21 07:53:23;;;;;;;4.22;0.30;;;22.40;99.90;;;;;;5036379;28;20024;-78
2023/08/21 07:55:49;;;;;;;5.85;0.10;;;22.40;99.90;;;;;;5036084;28;20044;-78
2023/08/21 07:58:15;;;;;;;5.57;0.38;;;22.30;99.90;;;;;;5036754;28;20100;-76
2023/08/21 08:00:42;;;;;;;1.92;0.10;;;22.50;99.90;;;;;;5036496;28;20036;-77
2023/08/21 08:03:08;;;;;;;3.42;0.00;;;22.60;99.90;;;;;;5036109;28;20503;-77
2023/08/21 08:05:34;;;;;;;2.05;0.10;;;22.70;99.90;;;;;;5035191;28;20022;-78
2023/08/21 08:07:59;;;;;;;4.32;0.00;;;22.80;99.90;;;;;;5036181;28;20044;-78
2023/08/21 08:10:27;;;;;;;2.88;0.30;;;22.90;99.90;;;;;;5036593;28;20029;-78
2023/08/21 08:12:54;;;;;;;1.15;0.10;;;23.10;99.90;;;;;;5034675;28;20021;-77
2023/08/21 08:15:20;;;;;;;1.27;0.10;;;23.20;99.90;;;;;;5035897;28;20469;-75
2023/08/21 08:17:46;;;;;;;4.53;0.15;;;23.30;99.90;;;;;;5032410;28;20033;-75
2023/08/21 08:20:13;;;;;;;4.38;0.10;;;23.50;99.90;;;;;;5032978;28;20029;-76
2023/08/21 08:22:39;;;;;;;3.50;0.10;;;23.50;99.90;;;;;;5032401;28;20083;-76
2023/08/21 08:25:05;;;;;;;0.98;0.00;;;23.60;99.90;;;;;;5034135;28;20040;-76
2023/08/21 08:27:32;;;;;;;3.67;0.20;;;23.60;99.90;;;;;;5033074;28;20081;-77
2023/08/21 08:29:57;;;;;;;3.85;0.65;;;23.60;99.90;;;;;;5034795;28;20075;-77
2023/08/21 08:32:23;;;;;;;3.75;0.45;;;23.60;99.90;;;;;;5035445;28;20446;-76
2023/08/21 08:34:48;;;;;;;1.92;0.10;;;23.60;99.90;;;;;;5034452;28;20036;-75
2023/08/21 08:37:14;;;;;;;2.33;0.13;;;23.50;99.90;;;;;;5034322;28;20032;-76
2023/08/21 08:39:40;;;;;;;5.82;0.17;;;23.70;99.90;;;;;;5034047;28;20021;-76
2023/08/21 08:42:06;;;;;;;4.68;0.10;;;23.80;99.90;;;;;;5034283;28;20036;-76
2023/08/21 08:44:35;;;;;;;2.70;0.00;;;23.90;99.90;;;;;;5034305;28;20033;-76
2023/08/21 08:47:01;;;;;;;3.05;0.00;;;23.80;99.90;;;;;;5034420;28;20028;-77
2023/08/21 08:49:27;;;;;;;5.15;0.68;;;23.90;99.90;;;;;;5033364;28;20478;-77
2023/08/21 08:51:54;;;;;;;3.70;0.10;;;23.90;99.90;;;;;;5034417;28;20101;-76
2023/08/21 08:54:25;;;;;;;2.42;0.22;;;23.70;99.90;;;;;;5033871;28;20025;-77
2023/08/21 08:56:50;;;;;;;2.97;0.35;;;23.90;99.90;;;;;;5034091;28;20029;-77
2023/08/21 08:59:16;;;;;;;3.08;0.00;;;24.00;99.90;;;;;;5033984;28;20101;-77
2023/08/21 09:01:42;;;;;;;5.85;0.77;;;24.10;99.90;;;;;;5032534;28;20036;-77
2023/08/21 09:04:08;;;;;;;2.53;0.20;;;24.20;99.90;;;;;;5032562;28;20025;-77
2023/08/21 09:06:33;;;;;;;3.40;0.22;;;24.30;99.90;;;;;;5033739;28;20385;-76
2023/08/21 09:08:59;;;;;;;2.67;0.30;;;24.40;99.90;;;;;;5033837;28;20021;-76
2023/08/21 09:11:25;;;;;;;2.70;0.20;;;24.40;99.90;;;;;;5033728;28;20014;-76
2023/08/21 09:13:52;;;;;;;1.85;0.00;;;24.50;99.90;;;;;;5034568;28;20026;-75
2023/08/21 09:16:19;;;;;;;3.30;0.10;;;24.50;99.90;;;;;;5033946;28;20033;-76
2023/08/21 09:18:53;;;;;;;2.83;0.20;;;24.50;99.90;;;;;;5033724;28;20060;-75
2023/08/21 09:21:20;;;;;;;5.32;0.10;;;24.60;99.90;;;;;;5032484;28;20056;-76
2023/08/21 09:23:46;;;;;;;3.20;0.55;;;24.60;99.90;;;;;;5034088;28;20025;-76
2023/08/21 09:26:21;;;;;;;2.13;0.00;;;24.60;99.90;;;;;;5033239;28;20075;-76
2023/08/21 09:28:51;;;;;;;6.28;0.43;;;24.50;99.90;;;;;;5032161;28;20034;-76
2023/08/21 09:31:29;;;;;;;1.75;0.20;;;24.40;99.90;;;;;;5032174;28;20092;-75
2023/08/21 09:34:04;;;;;;;1.27;0.20;;;24.60;99.90;;;;;;5032444;28;20032;-76
2023/08/21 09:36:31;;;;;;;1.10;0.00;;;24.70;99.90;;;;;;5033497;28;20025;-76
2023/08/21 09:38:57;;;;;;;1.83;0.00;;;24.80;99.90;;;;;;5033360;28;20512;-76
2023/08/21 09:41:24;;;;;;;2.83;0.00;;;24.80;99.90;;;;;;5033319;28;20032;-76
2023/08/21 09:43:49;;;;;;;0.80;0.03;;;24.70;99.90;;;;;;5033394;28;20021;-76
2023/08/21 09:46:16;;;;;;;2.28;0.00;;;24.90;99.90;;;;;;5033231;28;20385;-76
2023/08/21 09:48:44;;;;;;;3.75;0.10;;;24.90;99.90;;;;;;5032209;28;20098;-76
2023/08/21 09:51:11;;;;;;;1.33;0.05;;;24.90;99.90;;;;;;5034020;28;20080;-76
2023/08/21 09:53:37;;;;;;;1.13;0.00;;;25.00;99.90;;;;;;5037360;28;20045;-76
2023/08/21 09:56:03;;;;;;;5.78;0.25;;;25.10;99.90;;;;;;5037340;28;20078;-76
2023/08/21 09:58:29;;;;;;;4.00;0.00;;;25.10;99.90;;;;;;5037280;28;20036;-76
2023/08/21 10:00:57;;;;;;;3.45;0.30;;;25.20;99.90;;;;;;5037167;28;20041;-77
2023/08/21 10:03:23;;;;;;;1.02;0.25;;;25.20;99.90;;;;;;5037208;28;20029;-75
2023/08/21 10:05:49;;;;;;;3.55;0.10;;;25.10;99.90;;;;;;5037224;28;20125;-75
2023/08/21 10:08:23;;;;;;;2.45;0.00;;;25.20;99.90;;;;;;5037242;28;20105;-76
2023/08/21 10:10:48;;;;;;;5.68;0.05;;;25.20;99.90;;;;;;5035732;28;20028;-74
2023/08/21 10:13:14;;;;;;;1.95;0.00;;;25.30;99.90;;;;;;5037227;28;20025;-74
2023/08/21 10:15:41;;;;;;;2.33;0.10;;;25.50;99.90;;;;;;5035606;28;20021;-74
2023/08/21 10:18:25;;;;;;;0.73;0.00;;;25.50;99.90;;;;;;5037986;28;20046;-74
2023/08/21 10:20:52;;;;;;;1.40;0.00;;;25.60;99.90;;;;;;5036803;28;20026;-76
2023/08/21 10:23:26;;;;;;;1.85;0.10;;;25.60;99.90;;;;;;5036952;28;20106;-73
2023/08/21 10:25:57;;;;;;;0.63;0.00;;;25.60;99.90;;;;;;5036718;28;20033;-74
2023/08/21 10:28:23;;;;;;;0.85;0.43;;;25.80;99.90;;;;;;5036797;28;20455;-77
2023/08/21 10:30:49;;;;;;;4.35;0.28;;;25.90;99.90;;;;;;5035425;28;20143;-74
2023/08/21 10:33:14;;;;;;;3.83;0.00;;;26.10;99.90;;;;;;5036640;28;20053;-74
2023/08/21 10:35:40;;;;;;;1.27;0.00;;;26.20;98.90;;;;;;5036528;28;20022;-74
2023/08/21 10:38:15;;;;;;;2.38;0.10;;;26.30;99.80;;;;;;5036599;28;20436;-74
2023/08/21 10:41:01;;;;;;;1.27;0.00;;;26.10;98.70;;;;;;5036500;28;20022;-75
2023/08/21 10:43:40;;;;;;;3.50;0.00;;;26.10;99.90;;;;;;5036364;28;20459;-74
2023/08/21 10:46:07;;;;;;;1.42;0.22;;;26.50;99.90;;;;;;5036228;28;20121;-75
2023/08/21 10:48:32;;;;;;;3.22;0.43;;;26.80;99.20;;;;;;5036419;28;20033;-74
2023/08/21 10:51:03;;;;;;;1.58;0.10;;;26.90;97.90;;;;;;5037100;28;20543;-75
2023/08/21 10:53:33;;;;;;;0.90;0.00;;;27.10;97.30;;;;;;5035006;28;20112;-75
2023/08/21 10:56:03;;;;;;;1.30;0.00;;;27.40;96.90;;;;;;5034872;28;20017;-75
2023/08/21 10:58:37;;;;;;;0.10;0.00;;;27.40;94.20;;;;;;5036357;28;20053;-76
2023/08/21 11:01:03;;;;;;;1.17;0.20;;;27.60;95.60;;;;;;5035980;28;20113;-76
2023/08/21 11:03:28;;;;;;;1.40;0.08;;;27.40;94.20;;;;;;5034603;28;20049;-76
2023/08/21 11:06:02;;;;;;;1.17;0.00;;;27.40;94.80;;;;;;5035837;28;20501;-75
2023/08/21 11:08:28;;;;;;;2.25;0.00;;;27.30;94.50;;;;;;5034917;28;20611;-76
2023/08/21 11:10:54;;;;;;;0.17;0.00;;;27.30;94.50;;;;;;5035291;28;20033;-76
2023/08/21 11:13:19;;;;;;;0.75;0.00;;;27.30;95.00;;;;;;5036640;28;20021;-76
2023/08/21 11:15:45;;;;;;;1.33;0.00;;;27.60;95.30;;;;;;5037211;28;20033;-76
2023/08/21 11:18:11;;;;;;;0.82;0.03;;;27.70;94.40;;;;;;5035289;28;20030;-76
2023/08/21 11:20:37;;;;;;;1.65;0.08;;;27.80;95.60;;;;;;5037023;28;20026;-77
2023/08/21 11:23:07;;;;;;;3.28;0.00;;;27.70;95.10;;;;;;5035954;28;20021;-76
2023/08/21 11:25:34;;;;;;;0.45;0.10;;;27.40;95.40;;;;;;5034521;28;20370;-74
2023/08/21 11:28:02;;;;;;;0.88;0.00;;;27.10;94.20;;;;;;5035308;28;20026;-73
2023/08/21 11:30:28;;;;;;;1.17;0.00;;;26.70;96.00;;;;;;5035401;28;20101;-74
2023/08/21 11:33:10;;;;;;;1.33;0.10;;;26.60;97.10;;;;;;5034191;28;20072;-74
2023/08/21 11:35:38;;;;;;;0.15;0.00;;;26.80;96.80;;;;;;5036052;28;20029;-74
2023/08/21 11:38:04;;;;;;;1.08;0.20;;;27.30;96.20;;;;;;5035413;28;20044;-74
2023/08/21 11:40:30;;;;;;;5.25;0.43;;;27.50;94.00;;;;;;5035965;28;20454;-74
2023/08/21 11:43:00;;;;;;;0.95;0.00;;;27.80;93.80;;;;;;5035362;28;20049;-74
2023/08/21 11:45:26;;;;;;;0.00;0.00;;;28.10;93.20;;;;;;5035964;28;20029;-74
2023/08/21 11:47:55;;;;;;;1.35;0.32;;;28.30;92.60;;;;;;5035232;28;20059;-74
2023/08/21 11:50:21;;;;;;;0.65;0.00;;;28.40;93.00;;;;;;5033975;28;20029;-74
2023/08/21 11:52:47;;;;;;;0.47;0.00;;;28.60;91.80;;;;;;5035497;28;20025;-74
2023/08/21 11:55:12;;;;;;;2.63;0.00;;;28.80;92.20;;;;;;5035085;28;20026;-74
2023/08/21 11:57:47;;;;;;;0.60;0.00;;;29.10;90.70;;;;;;5035658;28;20041;-74
2023/08/21 12:00:13;;;;;;;0.10;0.10;;;29.10;89.00;;;;;;5033956;28;20037;-73
2023/08/21 12:02:39;;;;;;;2.90;0.00;;;29.20;88.00;;;;;;5035538;28;20030;-73
2023/08/21 12:05:05;;;;;;;0.52;0.00;;;29.40;90.30;;;;;;5034960;28;20025;-74
2023/08/21 12:07:32;;;;;;;0.47;0.20;;;29.60;90.10;;;;;;5034819;28;20029;-73
2023/08/21 12:09:58;;;;;;;0.68;0.00;;;29.60;88.90;;;;;;5034947;28;20473;-74
2023/08/21 12:12:24;;;;;;;1.00;0.00;;;29.50;86.00;;;;;;5034752;28;20018;-74
2023/08/21 12:14:49;;;;;;;1.95;0.00;;;29.20;84.60;;;;;;5034155;28;20021;-74
2023/08/21 12:17:15;;;;;;;1.00;0.00;;;29.20;82.60;;;;;;5033601;28;20388;-74
2023/08/21 12:19:41;;;;;;;0.10;0.00;;;29.00;83.40;;;;;;5034618;28;20025;-74
2023/08/21 12:22:08;;;;;;;0.90;0.00;;;29.10;85.60;;;;;;5035064;28;20033;-74
2023/08/21 12:24:33;;;;;;;0.82;0.00;;;29.10;86.40;;;;;;5034496;28;20067;-74
2023/08/21 12:26:59;;;;;;;0.73;0.00;;;29.30;85.20;;;;;;5034524;28;20396;-74
2023/08/21 12:29:25;;;;;;;7.60;0.13;;;29.10;85.70;;;;;;5033989;28;20025;-78
2023/08/21 12:31:50;;;;;;;0.10;0.00;;;29.40;91.10;;;;;;5036289;28;20021;-77
2023/08/21 12:34:16;;;;;;;2.22;0.30;;;29.60;89.10;;;;;;5034400;28;20074;-77
2023/08/21 12:36:41;;;;;;;1.45;0.00;;;30.20;91.90;;;;;;5034092;28;20108;-78
2023/08/21 12:39:07;;;;;;;0.80;0.00;;;30.70;90.40;;;;;;5035941;28;20026;-78
2023/08/21 12:41:33;;;;;;;3.53;0.10;;;30.50;88.10;;;;;;5035009;28;20481;-76
2023/08/21 12:43:59;;;;;;;2.47;0.40;;;30.50;90.90;;;;;;5036004;28;20036;-79